Flight Track Log - Related Links

Times and Time Zones

All times are in EDT time to prevent confusion due to time zone crossing. See the GGN7283 flight status page for this flight to view local times or setup timezone preferences in your user account.

Time Position Orientation Groundspeed Altitude Reporting Facility
EDT Latitude Longitude Course Direction KTS MPH feet Rate Location/Type
Mon 05:13:27 PM 42.7297 -73.8108 179° South 141 162 1,100  Level Boston Center
Mon 05:13:57 PM 42.7069 -73.8103 179° South 156 180 1,900 1,200 Climbing Boston Center
Mon 05:15:17 PM 42.6978 -73.8781 260° West 213 245 3,300 1,243 Climbing Boston Center
Mon 05:16:17 PM 42.7239 -73.9436 298° West 213 245 4,800 1,328 Climbing Boston Center
Mon 05:17:19 PM 42.7314 -74.0144 278° West 203 234 6,000 1,311 Climbing Boston Center
Mon 05:18:16 PM 42.7325 -74.0853 271° West 196 226 7,400 1,424 Climbing Boston Center
Mon 05:19:17 PM 42.7375 -74.1700 275° West 196 226 8,800 1,230 Climbing Boston Center
Mon 05:20:18 PM 42.7447 -74.2353 279° West 196 226 9,900 1,190 Climbing Boston Center
Mon 05:21:18 PM 42.7475 -74.3203 273° West 202 232 11,200 1,250 Climbing Boston Center
Mon 05:22:18 PM 42.7525 -74.3883 276° West 202 232 12,400 1,373 Climbing Boston Center
Mon 05:23:16 PM 42.7575 -74.4733 275° West 207 238 13,900 1,361 Climbing Boston Center
Mon 05:24:17 PM 42.7625 -74.5386 276° West 202 232 15,100 1,140 Climbing Boston Center
Mon 05:25:17 PM 42.7672 -74.6178 275° West 196 226 16,200 1,041 Climbing Boston Center
Mon 05:26:18 PM 42.7722 -74.6858 276° West 201 231 17,200 1,289 Climbing Boston Center
Mon 05:27:18 PM 42.7725 -74.7708 270° West 201 231 18,800 1,210 Climbing Boston Center
Mon 05:28:17 PM 42.7731 -74.8472 271° West 201 231 19,600 600 Climbing Boston Center
Mon 05:29:18 PM 42.7608 -74.9231 258° West 201 231 20,000 198 Climbing Boston Center
Mon 05:30:18 PM 42.7425 -75.0072 254° West 206 237 20,000  Level Boston Center
Mon 05:31:16 PM 42.7217 -75.0883 251° West 227 261 20,000  Level Boston Center
Mon 05:32:17 PM 42.6967 -75.1747 249° West 237 273 20,000  Level Boston Center
Mon 05:33:18 PM 42.6739 -75.2558 249° West 237 273 20,000  Level Boston Center
Mon 05:34:19 PM 42.6511 -75.3367 249° West 237 273 20,000 51 Level Boston Center
Mon 05:35:16 PM 42.6242 -75.4114 244° Southwest 237 273 20,100  Climbing Boston Center
Mon 05:36:17 PM 42.5950 -75.4919 244° Southwest 232 267 20,000 -49 Descending Boston Center
Mon 05:37:18 PM 42.5678 -75.5694 245° Southwest 232 267 20,000  Level Boston Center
Mon 05:38:16 PM 42.5406 -75.6528 246° West 237 273 20,000  Level Boston Center
Mon 05:40:17 PM 42.5336 -75.8214 267° West 224 258 20,000 33 Level Boston Center
Mon 05:41:16 PM 42.5542 -75.8986 290° West 224 258 20,100 50 Climbing Boston Center
Mon 05:42:16 PM 42.5681 -75.9869 282° West 224 258 20,100  Level Boston Center
Mon 05:43:17 PM 42.5797 -76.0750 280° West 229 264 20,100 -49 Level Boston Center
Mon 05:44:19 PM 42.5939 -76.1606 283° West 234 269 20,000 -50 Descending Boston Center
Mon 05:45:16 PM 42.6072 -76.2544 281° West 240 276 20,000 34 Level Boston Center
Mon 05:47:18 PM 42.6167 -76.4167 275° West 240 276 20,100  Climbing Toronto Center
Mon 05:48:18 PM 42.6333 -76.4833 289° West 230 265 20,000 -50 Descending Toronto Center
Mon 05:49:18 PM 42.6333 -76.5667 270° West 240 276 20,000  Level Toronto Center
Mon 05:50:18 PM 42.6500 -76.6667 283° West 240 276 20,000  Level Toronto Center
Mon 05:51:18 PM 42.6833 -76.7500 299° West 240 276 20,000  Level Toronto Center
Mon 05:52:18 PM 42.7000 -76.8500 283° West 240 276 20,000  Level Toronto Center
Mon 05:53:18 PM 42.7167 -76.9167 289° West 240 276 20,000 50 Level Toronto Center
Mon 05:54:18 PM 42.7333 -77.0000 285° West 240 276 20,100  Climbing Toronto Center
Mon 05:55:18 PM 42.7500 -77.0833 285° West 240 276 20,000  Descending Toronto Center
Mon 05:56:18 PM 42.7667 -77.1833 283° West 240 276 20,100  Climbing Toronto Center
Mon 05:57:18 PM 42.7833 -77.2667 285° West 240 276 20,000 -50 Descending Toronto Center
Mon 05:58:18 PM 42.8000 -77.3667 283° West 240 276 20,000  Level Toronto Center
Mon 05:59:18 PM 42.8333 -77.4333 304° West 240 276 20,000  Level Toronto Center
Mon 06:00:18 PM 42.8333 -77.5167 270° West 230 265 20,000  Level Toronto Center
Mon 06:01:18 PM 42.8500 -77.6167 283° West 230 265 20,000 50 Level Toronto Center
Mon 06:02:18 PM 42.8667 -77.6833 289° West 230 265 20,100 50 Climbing Toronto Center
Mon 06:03:18 PM 42.8833 -77.7667 285° West 230 265 20,100 -100 Level Toronto Center
Mon 06:04:18 PM 42.9000 -77.8500 285° West 230 265 19,900 -1,000 Descending Toronto Center
Mon 06:05:18 PM 42.9167 -77.9500 283° West 250 288 18,100 -1,800 Descending Toronto Center
Mon 06:06:18 PM 42.9333 -78.0333 285° West 260 299 16,300 -1,750 Descending Toronto Center
Mon 06:07:18 PM 42.9500 -78.1500 281° West 260 299 14,600 -1,150 Descending Toronto Center
Mon 06:08:18 PM 42.9667 -78.2500 283° West 260 299 14,000 -300 Descending Toronto Center
Mon 06:09:18 PM 42.9833 -78.3167 289° West 240 276 14,000  Level Toronto Center
Mon 06:10:18 PM 43.0000 -78.4000 285° West 230 265 14,000 -50 Level Toronto Center
Mon 06:11:18 PM 43.0333 -78.5000 295° West 230 265 13,900 -50 Descending Toronto Center
Mon 06:12:18 PM 43.0667 -78.5667 304° West 230 265 13,900  Level Toronto Center
Mon 06:13:18 PM 43.1000 -78.6500 299° West 230 265 13,900  Level Toronto Center
Mon 06:14:18 PM 43.1167 -78.7500 283° West 230 265 13,900  Level Toronto Center
Mon 06:15:18 PM 43.1333 -78.8167 289° West 230 265 13,900 -300 Level Toronto Center
Mon 06:16:18 PM 43.1667 -78.9000 299° West 240 276 13,300 -1,000 Descending Toronto Center
Mon 06:17:18 PM 43.2000 -79.0000 295° West 260 299 11,900 -1,450 Descending Toronto Center
Mon 06:18:18 PM 43.2167 -79.0833 285° West 270 311 10,400 -1,350 Descending Toronto Center
Mon 06:19:18 PM 43.2500 -79.1833 295° West 260 299 9,200 -750 Descending Toronto Center
Mon 06:20:18 PM 43.2667 -79.2667 285° West 250 288 8,900 -400 Descending Toronto Center
Mon 06:21:18 PM 43.3000 -79.3333 305° West 230 265 8,400 -450 Descending Toronto Center
Mon 06:22:18 PM 43.3667 -79.3833 331° Northwest 250 288 8,000 -150 Descending Toronto Center
Mon 06:23:18 PM 43.4333 -79.4333 331° Northwest 240 276 8,100 50 Climbing Toronto Center
Mon 06:24:18 PM 43.4833 -79.4667 334° Northwest 250 288 8,100 -200 Level Toronto Center
Mon 06:25:18 PM 43.5500 -79.5167 331° Northwest 240 276 7,700 -800 Descending Toronto Center
Mon 06:26:18 PM 43.6167 -79.4667 28° Northeast 260 299 6,500 -1,300 Descending Toronto Center
Mon 06:27:18 PM 43.6500 -79.4000 55° Northeast 240 276 5,100 -1,350 Descending Toronto Center
Mon 06:28:18 PM 43.7000 -79.3333 44° Northeast 230 265 3,800 -1,000 Descending Toronto Center
Mon 06:29:18 PM 43.7500 -79.3333 360° North 210 242 3,100 -400 Descending Toronto Center
Mon 06:30:18 PM 43.7833 -79.3500 340° North 160 184 3,000  Descending Toronto Center
Mon 06:31:18 PM 43.7667 -79.4333 255° West 160 184 3,100 -200 Climbing Toronto Center
Mon 06:32:18 PM 43.7333 -79.4667 216° Southwest 160 184 2,600 -650 Descending Toronto Center
Mon 06:33:18 PM 43.7000 -79.5167 227° Southwest 160 184 1,800 -800 Descending Toronto Center
Mon 06:34:18 PM 43.6833 -79.5667 245° Southwest 150 173 1,000 -600 Descending Toronto Center
Mon 06:35:18 PM 43.6500 -79.5833 200° South 110 127 600 -400 Descending Toronto Center

Login

Don't have an account? Register now (free) for customized features, flight alerts, and more!